Time;durP1;ratioP1;P1;durP2;ratioP2;P2;SDS_P1;SDS_P2;PMS_P1;PMS_P2;Temp;Humidity;BMP_temperature;BMP_pressure;BME280_temperature;BME280_humidity;BME280_pressure;Samples;Min_cycle;Max_cycle;Signal;HPM_P1;HPM_P2
2023/06/13 00:01:37;;;;;;;11.95;3.80;;;17.80;84.90;;;;;;4930461;29;20122;-84
2023/06/13 00:04:03;;;;;;;10.10;3.28;;;17.70;85.00;;;;;;4930638;29;20039;-84
2023/06/13 00:06:30;;;;;;;10.20;3.40;;;17.70;85.00;;;;;;4929261;29;20039;-84
2023/06/13 00:08:57;;;;;;;6.63;3.00;;;17.70;85.00;;;;;;4915813;29;20039;-84
2023/06/13 00:11:23;;;;;;;8.18;3.45;;;17.70;85.30;;;;;;4911269;29;20480;-84
2023/06/13 00:13:48;;;;;;;6.57;2.95;;;17.60;85.20;;;;;;4931432;29;20137;-84
2023/06/13 00:16:15;;;;;;;8.43;3.20;;;17.60;85.40;;;;;;4911222;29;20122;-84
2023/06/13 00:18:40;;;;;;;8.77;3.42;;;17.60;85.50;;;;;;4929209;29;20075;-84
2023/06/13 00:21:07;;;;;;;7.85;3.53;;;17.50;85.60;;;;;;4926422;29;20044;-84
2023/06/13 00:23:33;;;;;;;14.77;4.28;;;17.40;85.60;;;;;;4928859;29;20051;-85
2023/06/13 00:25:59;;;;;;;8.80;3.70;;;17.40;85.70;;;;;;4924667;29;20531;-84
2023/06/13 00:28:25;;;;;;;15.23;3.70;;;17.40;85.80;;;;;;4916335;29;20051;-84
2023/06/13 00:30:51;;;;;;;10.55;3.88;;;17.30;86.00;;;;;;4923286;29;20047;-84
2023/06/13 00:33:17;;;;;;;10.57;3.60;;;17.30;86.10;;;;;;4904065;29;20047;-84
2023/06/13 00:35:43;;;;;;;10.30;3.92;;;17.30;86.30;;;;;;4907056;29;20039;-84
2023/06/13 00:38:10;;;;;;;9.40;3.80;;;17.20;86.40;;;;;;4911900;29;20491;-84
2023/06/13 00:40:36;;;;;;;9.00;4.00;;;17.20;86.40;;;;;;4937295;29;20079;-85
2023/06/13 00:43:02;;;;;;;13.30;3.85;;;17.20;86.40;;;;;;4932805;29;20089;-85
2023/06/13 00:45:29;;;;;;;10.23;4.00;;;17.20;86.50;;;;;;4946716;29;20048;-85
2023/06/13 00:47:59;;;;;;;11.38;3.20;;;17.10;86.60;;;;;;4932690;29;20078;-85
2023/06/13 00:50:30;;;;;;;7.60;3.53;;;17.10;86.80;;;;;;4931450;28;20051;-84
2023/06/13 00:52:59;;;;;;;7.82;3.33;;;17.10;86.80;;;;;;4916299;29;20071;-85
2023/06/13 00:55:26;;;;;;;9.02;3.40;;;17.10;86.80;;;;;;4915046;28;20061;-85
2023/06/13 00:57:56;;;;;;;8.30;3.47;;;17.00;87.40;;;;;;4917157;29;20055;-85
2023/06/13 01:00:26;;;;;;;9.05;4.07;;;17.00;86.90;;;;;;4914387;28;20146;-84
2023/06/13 01:02:55;;;;;;;7.50;3.38;;;17.00;87.10;;;;;;4948740;29;20051;-85
2023/06/13 01:05:25;;;;;;;12.20;3.65;;;17.00;87.30;;;;;;4915581;28;20046;-84
2023/06/13 01:07:52;;;;;;;8.25;3.65;;;16.90;87.30;;;;;;4931643;29;20460;-85
2023/06/13 01:10:18;;;;;;;7.38;3.15;;;16.90;87.30;;;;;;4914798;29;20043;-85
2023/06/13 01:12:56;;;;;;;8.07;3.20;;;16.90;87.20;;;;;;4915663;29;20050;-85
2023/06/13 01:15:23;;;;;;;6.22;3.20;;;16.90;87.30;;;;;;4915891;29;20043;-85
2023/06/13 01:17:57;;;;;;;8.93;3.47;;;16.80;87.40;;;;;;4948503;29;20424;-85
2023/06/13 01:20:26;;;;;;;9.48;3.30;;;16.80;87.60;;;;;;4934999;29;20468;-84
2023/06/13 01:22:56;;;;;;;7.32;3.25;;;16.70;87.90;;;;;;4915687;29;20138;-84
2023/06/13 01:25:52;;;;;;;7.68;4.07;;;16.70;88.10;;;;;;4930808;29;20077;-84
2023/06/13 01:28:20;;;;;;;8.05;3.20;;;16.60;88.10;;;;;;4914611;29;20098;-84
2023/06/13 01:30:47;;;;;;;9.88;3.80;;;16.60;88.20;;;;;;4963826;28;20043;-84
2023/06/13 01:33:14;;;;;;;8.02;4.20;;;16.50;88.30;;;;;;4931294;29;20432;-84
2023/06/13 01:35:40;;;;;;;7.18;3.58;;;16.50;88.30;;;;;;4935148;28;20492;-84
2023/06/13 01:38:06;;;;;;;8.05;3.67;;;16.50;88.30;;;;;;4903806;29;20403;-85
2023/06/13 01:40:32;;;;;;;6.63;3.75;;;16.50;88.40;;;;;;4914354;29;20047;-85
2023/06/13 01:42:57;;;;;;;15.45;4.10;;;16.50;88.40;;;;;;4915278;29;20142;-83
2023/06/13 01:45:24;;;;;;;6.55;4.28;;;16.40;88.50;;;;;;4946633;29;20039;-84
2023/06/13 01:48:01;;;;;;;9.55;4.10;;;16.40;88.60;;;;;;4915051;29;20082;-84
2023/06/13 01:50:30;;;;;;;10.68;4.30;;;16.40;88.70;;;;;;4946926;29;20574;-84
2023/06/13 01:53:21;;;;;;;10.27;4.00;;;16.40;88.80;;;;;;4964133;28;20047;-84
2023/06/13 01:55:58;;;;;;;9.50;4.43;;;16.30;89.00;;;;;;4913908;29;20047;-84
2023/06/13 01:58:34;;;;;;;8.82;4.40;;;16.30;89.20;;;;;;4962797;28;20056;-84
2023/06/13 02:01:04;;;;;;;6.90;3.70;;;16.20;89.50;;;;;;4920858;29;20043;-84
2023/06/13 02:03:30;;;;;;;13.52;4.32;;;16.20;89.70;;;;;;4914094;29;20646;-84
2023/06/13 02:05:56;;;;;;;10.40;3.80;;;16.20;90.00;;;;;;4916003;29;20057;-84
2023/06/13 02:08:22;;;;;;;10.45;4.32;;;16.10;90.00;;;;;;4930623;29;20479;-84
2023/06/13 02:10:48;;;;;;;7.43;3.72;;;16.10;90.10;;;;;;4914373;29;20043;-84
2023/06/13 02:13:14;;;;;;;9.85;4.28;;;16.10;90.30;;;;;;4915419;29;20039;-84
2023/06/13 02:15:39;;;;;;;7.13;3.70;;;16.00;90.40;;;;;;4931661;29;20039;-84
2023/06/13 02:18:06;;;;;;;6.75;3.55;;;16.00;90.60;;;;;;4924454;28;20522;-84
2023/06/13 02:20:33;;;;;;;6.30;3.25;;;15.90;90.70;;;;;;4918805;29;20125;-83
2023/06/13 02:23:02;;;;;;;13.18;3.50;;;15.90;90.90;;;;;;4918979;29;20043;-83
2023/06/13 02:25:27;;;;;;;7.35;3.67;;;15.80;91.10;;;;;;4917673;29;20565;-83
2023/06/13 02:27:53;;;;;;;7.13;3.45;;;15.80;91.20;;;;;;4919727;29;20292;-83
2023/06/13 02:30:19;;;;;;;11.65;3.60;;;15.80;91.30;;;;;;4918148;29;20562;-83
2023/06/13 02:32:46;;;;;;;9.38;3.10;;;15.80;91.40;;;;;;4934755;29;20491;-83
2023/06/13 02:35:13;;;;;;;9.00;3.63;;;15.70;91.50;;;;;;4929624;29;20499;-83
2023/06/13 02:37:39;;;;;;;10.23;3.50;;;15.70;91.60;;;;;;4915321;29;20569;-83
2023/06/13 02:40:07;;;;;;;6.30;3.53;;;15.60;91.70;;;;;;4918193;29;20067;-83
2023/06/13 02:42:33;;;;;;;10.65;3.40;;;15.60;91.80;;;;;;4917961;29;20043;-84
2023/06/13 02:44:59;;;;;;;7.60;3.22;;;15.50;91.90;;;;;;4918446;29;20095;-83
2023/06/13 02:47:25;;;;;;;12.05;3.35;;;15.50;92.00;;;;;;4918434;29;20407;-84
2023/06/13 02:49:50;;;;;;;8.90;3.20;;;15.50;92.00;;;;;;4934243;29;20086;-84
2023/06/13 02:52:16;;;;;;;7.82;3.30;;;15.50;92.00;;;;;;4918189;29;20043;-84
2023/06/13 02:54:42;;;;;;;6.15;3.35;;;15.50;92.00;;;;;;4917521;29;20534;-84
2023/06/13 02:57:09;;;;;;;9.25;3.58;;;15.40;92.10;;;;;;4934864;28;20044;-84
2023/06/13 02:59:34;;;;;;;8.82;3.28;;;15.40;92.20;;;;;;4933573;29;20387;-83
2023/06/13 03:02:00;;;;;;;6.72;3.20;;;15.40;92.30;;;;;;4933965;29;20503;-83
2023/06/13 03:04:28;;;;;;;9.85;3.72;;;15.40;92.50;;;;;;4933966;29;20047;-83
2023/06/13 03:06:54;;;;;;;9.50;3.78;;;15.30;92.60;;;;;;4917457;28;20085;-83
2023/06/13 03:09:20;;;;;;;6.65;3.33;;;15.30;92.70;;;;;;4916822;29;20039;-83
2023/06/13 03:11:46;;;;;;;6.38;3.13;;;15.30;92.70;;;;;;4934047;29;20043;-83
2023/06/13 03:14:12;;;;;;;6.90;3.17;;;15.30;92.70;;;;;;4917231;29;20045;-84
2023/06/13 03:16:38;;;;;;;8.40;3.80;;;15.20;92.80;;;;;;4918132;28;20514;-84
2023/06/13 03:19:04;;;;;;;8.82;3.42;;;15.30;92.90;;;;;;4918330;29;20047;-84
2023/06/13 03:21:30;;;;;;;9.23;3.72;;;15.20;93.00;;;;;;4933445;29;20055;-84
2023/06/13 03:23:56;;;;;;;9.68;3.42;;;15.20;93.10;;;;;;4934152;29;20062;-83
2023/06/13 03:26:22;;;;;;;7.43;3.42;;;15.20;93.20;;;;;;4917326;29;20070;-83
2023/06/13 03:28:48;;;;;;;9.73;3.63;;;15.20;93.30;;;;;;4918350;28;20043;-84
2023/06/13 03:31:14;;;;;;;7.50;3.25;;;15.20;93.40;;;;;;4917386;29;20050;-84
2023/06/13 03:33:41;;;;;;;6.15;3.20;;;15.20;93.30;;;;;;4917440;29;20062;-84
2023/06/13 03:36:06;;;;;;;9.60;3.20;;;15.10;93.20;;;;;;4909103;29;20055;-84
2023/06/13 03:38:32;;;;;;;6.45;3.42;;;15.10;93.20;;;;;;4917573;29;20080;-84
2023/06/13 03:40:58;;;;;;;12.57;3.40;;;15.10;93.20;;;;;;4916341;29;20067;-84
2023/06/13 03:43:26;;;;;;;7.47;3.42;;;15.10;93.40;;;;;;4916779;29;20054;-83
2023/06/13 03:45:52;;;;;;;4.88;2.97;;;15.10;93.20;;;;;;4933628;29;20457;-84
2023/06/13 03:48:19;;;;;;;11.05;3.17;;;15.10;93.10;;;;;;4916537;29;20043;-84
2023/06/13 03:50:45;;;;;;;8.15;3.28;;;15.10;92.90;;;;;;4917627;29;20043;-84
2023/06/13 03:53:10;;;;;;;6.55;3.15;;;15.10;92.90;;;;;;4917500;29;20118;-84
2023/06/13 03:55:36;;;;;;;8.98;3.65;;;15.10;92.90;;;;;;4931568;29;20039;-83
2023/06/13 03:58:02;;;;;;;7.18;3.33;;;15.10;93.00;;;;;;4933908;29;20415;-84
2023/06/13 04:00:34;;;;;;;9.68;3.60;;;15.10;93.00;;;;;;4913617;29;20087;-84
2023/06/13 04:03:00;;;;;;;7.45;3.10;;;15.10;93.20;;;;;;4911138;29;20389;-83
2023/06/13 04:05:26;;;;;;;11.40;3.50;;;15.10;93.30;;;;;;4892709;29;20048;-84
2023/06/13 04:07:53;;;;;;;10.57;3.22;;;15.10;93.50;;;;;;4888592;29;20170;-84
2023/06/13 04:10:19;;;;;;;8.85;3.60;;;15.10;93.70;;;;;;4893677;29;20054;-84
2023/06/13 04:12:45;;;;;;;10.48;3.67;;;15.20;94.00;;;;;;4895829;29;20044;-84
2023/06/13 04:15:11;;;;;;;10.38;3.60;;;15.10;94.20;;;;;;4894394;29;20056;-84
2023/06/13 04:17:36;;;;;;;6.65;3.47;;;15.10;94.60;;;;;;4911210;29;20265;-84
2023/06/13 04:20:04;;;;;;;6.30;3.67;;;15.20;94.60;;;;;;4895288;29;20048;-84
2023/06/13 04:22:31;;;;;;;15.95;3.88;;;15.20;94.50;;;;;;4894207;29;20040;-84
2023/06/13 04:24:57;;;;;;;10.38;3.53;;;15.30;94.60;;;;;;4898026;29;20438;-84
2023/06/13 04:27:27;;;;;;;5.88;3.50;;;15.30;94.20;;;;;;4895965;29;20380;-84
2023/06/13 04:29:54;;;;;;;9.65;4.10;;;15.40;93.90;;;;;;4894483;29;20412;-84
2023/06/13 04:32:23;;;;;;;9.65;3.60;;;15.40;93.80;;;;;;4923074;29;20106;-84
2023/06/13 04:34:52;;;;;;;21.27;4.55;;;15.50;93.40;;;;;;4894927;29;20044;-84
2023/06/13 04:37:25;;;;;;;8.20;3.28;;;15.60;93.00;;;;;;4925495;29;20035;-84
2023/06/13 04:39:52;;;;;;;;;;;15.70;92.70;;;;;;4894483;29;20087;-84
2023/06/13 04:42:26;;;;;;;7.97;3.40;;;15.80;92.50;;;;;;4894603;29;19926;-84
2023/06/13 04:44:53;;;;;;;9.57;3.28;;;15.90;92.20;;;;;;4883751;29;20102;-85
2023/06/13 04:47:20;;;;;;;7.72;3.22;;;16.00;91.80;;;;;;4910758;29;20449;-84
2023/06/13 04:49:46;;;;;;;7.70;2.95;;;16.10;91.50;;;;;;4893868;29;20047;-85
2023/06/13 04:52:23;;;;;;;10.68;3.25;;;16.10;91.10;;;;;;4896655;29;20044;-84
2023/06/13 04:54:49;;;;;;;5.57;2.80;;;16.20;90.90;;;;;;4912936;29;20054;-85
2023/06/13 04:57:14;;;;;;;10.07;2.92;;;16.30;90.80;;;;;;4894193;29;20044;-85
2023/06/13 04:59:41;;;;;;;9.27;2.90;;;16.40;90.60;;;;;;4904270;29;20398;-84
2023/06/13 05:02:07;;;;;;;12.80;2.75;;;16.50;90.30;;;;;;4931903;29;20047;-85
2023/06/13 05:04:33;;;;;;;6.65;2.50;;;16.60;90.10;;;;;;4910292;29;20046;-84
2023/06/13 05:07:00;;;;;;;9.43;2.95;;;16.70;90.00;;;;;;4914338;29;20044;-84
2023/06/13 05:09:27;;;;;;;8.00;2.80;;;16.80;89.90;;;;;;4963017;28;20083;-84
2023/06/13 05:11:53;;;;;;;6.18;3.03;;;16.90;89.70;;;;;;4915831;29;20043;-84
2023/06/13 05:14:18;;;;;;;6.97;2.70;;;17.00;89.20;;;;;;4915505;29;20057;-85
2023/06/13 05:16:44;;;;;;;4.85;2.60;;;17.10;88.80;;;;;;4931791;29;20054;-85
2023/06/13 05:19:10;;;;;;;7.75;2.47;;;17.20;88.10;;;;;;4915048;29;20098;-85
2023/06/13 05:21:36;;;;;;;5.97;2.60;;;17.50;87.60;;;;;;4916104;29;20461;-85
2023/06/13 05:24:03;;;;;;;9.98;3.03;;;17.40;87.10;;;;;;4915175;29;20544;-84
2023/06/13 05:26:28;;;;;;;7.10;2.35;;;17.50;86.40;;;;;;4914714;29;20497;-85
2023/06/13 05:28:57;;;;;;;7.20;2.80;;;17.60;86.00;;;;;;4943211;29;20181;-85
2023/06/13 05:31:22;;;;;;;10.90;2.88;;;17.70;85.70;;;;;;4908991;29;20400;-86
2023/06/13 05:33:48;;;;;;;5.15;2.33;;;17.80;85.20;;;;;;4930721;28;20059;-85
2023/06/13 05:36:14;;;;;;;6.97;2.47;;;17.90;85.20;;;;;;4930228;29;20058;-85
2023/06/13 05:38:40;;;;;;;12.85;2.90;;;18.00;85.30;;;;;;4913214;29;20078;-86
2023/06/13 05:41:05;;;;;;;11.38;2.85;;;18.10;85.00;;;;;;4914702;29;20047;-85
2023/06/13 05:43:32;;;;;;;15.23;2.58;;;18.20;84.70;;;;;;4936380;29;20401;-86
2023/06/13 05:45:58;;;;;;;28.67;3.63;;;18.30;85.20;;;;;;4910917;29;20043;-85
2023/06/13 05:48:23;;;;;;;10.50;3.00;;;18.50;86.20;;;;;;4927803;29;20054;-88
2023/06/13 05:50:49;;;;;;;8.60;2.80;;;18.60;86.50;;;;;;4916704;29;20126;-90
2023/06/13 05:53:15;;;;;;;10.95;2.78;;;18.70;88.60;;;;;;4919549;29;20082;-89
2023/06/13 05:55:41;;;;;;;7.25;2.75;;;18.80;88.00;;;;;;4950316;29;20069;-86
2023/06/13 05:58:06;;;;;;;6.20;2.50;;;18.90;88.00;;;;;;4935737;29;20170;-86
2023/06/13 06:00:32;;;;;;;6.35;2.15;;;19.00;86.40;;;;;;4923152;29;20051;-85
2023/06/13 06:02:58;;;;;;;7.85;2.85;;;19.10;85.50;;;;;;4918999;29;20403;-86
2023/06/13 06:05:24;;;;;;;7.28;2.03;;;19.20;84.70;;;;;;4911307;29;20047;-85
2023/06/13 06:07:50;;;;;;;6.28;2.20;;;19.20;83.90;;;;;;4919827;29;20126;-85
2023/06/13 06:10:15;;;;;;;5.40;2.20;;;19.30;84.20;;;;;;4917755;29;20043;-85
2023/06/13 06:12:42;;;;;;;5.63;2.33;;;19.40;84.50;;;;;;4935526;29;20143;-85
2023/06/13 06:15:08;;;;;;;6.88;2.55;;;19.50;84.30;;;;;;4918301;29;20589;-86
2023/06/13 06:17:33;;;;;;;10.52;2.25;;;19.50;83.30;;;;;;4919738;29;20054;-86
2023/06/13 06:19:59;;;;;;;7.63;2.30;;;19.60;83.10;;;;;;4935158;29;20454;-86
2023/06/13 06:22:25;;;;;;;7.82;2.13;;;19.70;82.40;;;;;;4918707;29;20062;-87
2023/06/13 06:24:51;;;;;;;8.07;2.13;;;19.80;82.20;;;;;;4919018;29;20047;-87
2023/06/13 06:27:16;;;;;;;7.25;2.13;;;19.90;82.20;;;;;;4919033;29;20047;-86
2023/06/13 06:29:42;;;;;;;5.72;2.00;;;19.90;81.20;;;;;;4934483;29;20097;-89
2023/06/13 06:32:08;;;;;;;6.60;2.10;;;20.00;80.80;;;;;;4921020;29;20470;-92
2023/06/13 06:34:34;;;;;;;6.43;2.03;;;20.00;80.90;;;;;;4936707;29;20044;-93
2023/06/13 06:37:01;;;;;;;6.38;2.22;;;20.10;79.80;;;;;;4921820;29;20051;-94
2023/06/13 06:39:26;;;;;;;5.97;2.33;;;20.10;79.20;;;;;;4920672;29;20054;-96
2023/06/13 06:41:52;;;;;;;6.38;1.80;;;20.20;80.10;;;;;;4922134;29;20470;-92
2023/06/13 06:44:18;;;;;;;3.28;1.50;;;20.40;79.70;;;;;;4911647;29;20126;-95
2023/06/13 06:46:44;;;;;;;4.80;1.50;;;20.50;79.00;;;;;;4921798;29;20559;-94
2023/06/13 06:49:09;;;;;;;6.50;2.00;;;20.50;78.00;;;;;;4921492;29;20059;-96
2023/06/13 06:51:35;;;;;;;9.18;1.80;;;20.70;78.60;;;;;;4921452;29;20479;-96
2023/06/13 06:54:02;;;;;;;8.85;1.83;;;20.70;76.60;;;;;;4912436;28;20047;-96
2023/06/13 06:56:31;;;;;;;5.43;1.98;;;20.70;76.20;;;;;;4938365;29;20054;-96
2023/06/13 06:58:57;;;;;;;6.25;2.00;;;20.80;76.30;;;;;;4926653;29;20055;-89
2023/06/13 07:01:23;;;;;;;4.03;1.77;;;20.90;76.60;;;;;;4934405;29;20460;-96
2023/06/13 07:03:48;;;;;;;5.38;1.73;;;21.00;76.20;;;;;;4920819;29;20039;-94
2023/06/13 07:06:14;;;;;;;11.98;1.88;;;21.00;75.50;;;;;;4911661;29;20048;-95
2023/06/13 07:08:40;;;;;;;11.35;2.08;;;21.10;76.20;;;;;;4922808;29;20066;-96
2023/06/13 07:11:06;;;;;;;4.30;1.80;;;21.20;77.70;;;;;;4927151;29;20564;-94
2023/06/13 07:13:32;;;;;;;6.20;1.90;;;21.30;78.00;;;;;;4935298;29;20074;-96
2023/06/13 07:16:00;;;;;;;5.10;1.90;;;21.50;77.90;;;;;;4930884;29;20058;-96
2023/06/13 07:18:26;;;;;;;5.78;1.55;;;21.60;77.30;;;;;;4921119;29;20041;-95
2023/06/13 07:20:52;;;;;;;5.25;1.70;;;21.60;76.70;;;;;;4921809;29;20047;-95
2023/06/13 07:23:17;;;;;;;4.40;1.50;;;21.70;77.60;;;;;;4921788;29;20098;-96
2023/06/13 07:25:43;;;;;;;8.98;1.85;;;21.80;78.10;;;;;;4922801;29;20577;-96
2023/06/13 07:28:09;;;;;;;5.32;1.92;;;21.90;77.50;;;;;;4954702;29;20496;-94
2023/06/13 07:30:36;;;;;;;6.90;2.28;;;22.00;75.60;;;;;;4921100;29;20058;-95
2023/06/13 07:33:02;;;;;;;5.35;1.77;;;22.00;75.00;;;;;;4922994;29;20051;-96
2023/06/13 07:35:27;;;;;;;5.63;1.90;;;22.00;75.10;;;;;;4920576;29;20162;-96
2023/06/13 07:37:54;;;;;;;5.75;1.70;;;22.10;75.60;;;;;;4918503;29;20403;-86
2023/06/13 07:40:21;;;;;;;5.85;1.85;;;22.20;76.00;;;;;;4915670;29;20051;-87
2023/06/13 07:42:48;;;;;;;5.78;2.05;;;22.30;75.70;;;;;;4914142;29;20040;-86
2023/06/13 07:45:14;;;;;;;4.47;2.05;;;22.40;76.30;;;;;;4910118;29;20054;-86
2023/06/13 07:47:40;;;;;;;11.73;2.22;;;22.50;75.60;;;;;;4933355;29;20039;-87
2023/06/13 07:50:06;;;;;;;6.38;2.00;;;22.60;75.60;;;;;;4917745;29;20054;-86
2023/06/13 07:52:32;;;;;;;7.68;1.90;;;22.70;76.20;;;;;;4918566;29;20503;-87
2023/06/13 07:54:58;;;;;;;8.77;1.73;;;22.80;76.70;;;;;;4916443;29;20051;-87
2023/06/13 07:57:23;;;;;;;4.43;1.73;;;22.90;75.90;;;;;;4918131;29;20043;-88
2023/06/13 07:59:49;;;;;;;6.82;2.38;;;23.00;76.30;;;;;;4933886;29;20495;-87
2023/06/13 08:02:15;;;;;;;5.82;1.80;;;23.10;76.20;;;;;;4916797;29;20059;-87
2023/06/13 08:04:41;;;;;;;7.50;1.90;;;23.20;76.30;;;;;;4914721;29;20431;-87
2023/06/13 08:07:07;;;;;;;9.32;1.95;;;23.20;76.70;;;;;;4948061;29;20593;-86
2023/06/13 08:09:32;;;;;;;6.72;2.22;;;23.40;79.00;;;;;;4931816;29;20043;-87
2023/06/13 08:11:59;;;;;;;8.60;1.92;;;23.40;76.80;;;;;;4917882;29;20043;-86
2023/06/13 08:14:25;;;;;;;5.90;2.10;;;23.50;75.40;;;;;;4932487;29;20077;-86
2023/06/13 08:16:50;;;;;;;4.25;1.70;;;23.50;75.10;;;;;;4916165;29;20070;-86
2023/06/13 08:19:16;;;;;;;3.85;1.85;;;23.60;76.30;;;;;;4916760;29;20035;-86
2023/06/13 08:21:42;;;;;;;11.40;2.30;;;23.70;76.40;;;;;;4932703;29;20051;-86
2023/06/13 08:24:07;;;;;;;4.57;1.75;;;23.80;76.30;;;;;;4917125;29;20055;-86
2023/06/13 08:26:33;;;;;;;5.90;2.20;;;23.80;76.20;;;;;;4916789;29;20487;-86
2023/06/13 08:29:02;;;;;;;5.03;1.92;;;23.90;76.50;;;;;;4917291;29;20395;-86
2023/06/13 08:31:29;;;;;;;5.28;1.83;;;24.00;75.90;;;;;;4916464;29;20102;-86
2023/06/13 08:33:55;;;;;;;5.18;2.00;;;24.20;77.10;;;;;;4917657;29;20585;-86
2023/06/13 08:36:22;;;;;;;4.97;2.00;;;24.30;77.90;;;;;;4915962;29;20062;-86
2023/06/13 08:38:48;;;;;;;5.05;2.00;;;24.40;75.60;;;;;;4933466;29;20130;-87
2023/06/13 08:41:14;;;;;;;11.25;2.30;;;24.40;75.00;;;;;;4916370;29;20166;-87
2023/06/13 08:43:42;;;;;;;5.47;2.30;;;24.40;74.20;;;;;;4916329;29;20122;-86
2023/06/13 08:46:08;;;;;;;8.48;2.08;;;24.50;73.60;;;;;;4964914;28;20047;-87
2023/06/13 08:48:34;;;;;;;6.32;2.00;;;24.50;73.80;;;;;;4916161;29;20044;-87
2023/06/13 08:51:03;;;;;;;9.18;2.10;;;24.60;74.90;;;;;;4916226;29;20051;-86
2023/06/13 08:53:31;;;;;;;6.50;1.88;;;24.70;75.70;;;;;;4916513;29;20130;-86
2023/06/13 08:56:03;;;;;;;17.42;2.53;;;24.80;77.70;;;;;;4916075;29;20054;-86
2023/06/13 08:58:35;;;;;;;8.52;1.80;;;24.90;76.10;;;;;;4915011;29;20305;-87
2023/06/13 09:01:02;;;;;;;6.68;2.20;;;24.90;74.90;;;;;;4932840;29;20096;-86
2023/06/13 09:03:29;;;;;;;8.38;1.98;;;24.90;73.00;;;;;;4947747;28;20047;-87
2023/06/13 09:05:56;;;;;;;7.60;2.08;;;25.00;73.30;;;;;;4916161;29;20463;-87
2023/06/13 09:08:23;;;;;;;6.80;2.13;;;25.00;73.90;;;;;;4931542;28;20499;-86
2023/06/13 09:10:50;;;;;;;5.57;2.22;;;25.10;73.30;;;;;;4916204;29;20043;-87
2023/06/13 09:13:17;;;;;;;6.22;2.10;;;25.10;71.90;;;;;;4931777;29;20134;-87
2023/06/13 09:15:44;;;;;;;8.32;2.33;;;25.10;71.20;;;;;;4916176;29;20051;-87
2023/06/13 09:18:11;;;;;;;10.75;1.95;;;25.10;71.90;;;;;;4931821;29;20494;-88
2023/06/13 09:20:36;;;;;;;10.05;2.22;;;25.10;69.80;;;;;;4963750;28;20139;-86
2023/06/13 09:23:03;;;;;;;6.40;1.90;;;25.10;71.00;;;;;;4916680;29;20046;-87
2023/06/13 09:25:35;;;;;;;6.97;2.17;;;25.20;70.60;;;;;;4914531;29;20113;-87
2023/06/13 09:28:26;;;;;;;8.27;2.30;;;25.10;67.50;;;;;;4916392;29;20051;-87
2023/06/13 09:30:52;;;;;;;2.80;2.00;;;25.10;66.20;;;;;;4915998;29;20058;-87
2023/06/13 09:33:21;;;;;;;7.13;2.10;;;25.20;67.50;;;;;;4915800;29;20043;-87
2023/06/13 09:35:47;;;;;;;13.93;2.45;;;25.20;68.10;;;;;;4916306;28;20051;-86
2023/06/13 09:38:13;;;;;;;5.70;2.15;;;25.30;69.50;;;;;;4932188;29;20043;-87
2023/06/13 09:40:44;;;;;;;22.83;2.83;;;25.40;69.20;;;;;;4915368;28;20058;-87
2023/06/13 09:43:10;;;;;;;6.53;2.33;;;25.50;69.70;;;;;;4908767;29;20048;-86
2023/06/13 09:45:36;;;;;;;7.30;2.22;;;25.50;69.00;;;;;;4911349;29;20103;-88
2023/06/13 09:48:02;;;;;;;7.53;2.15;;;25.50;69.80;;;;;;4915598;29;20058;-87
2023/06/13 09:50:30;;;;;;;8.27;2.13;;;25.60;69.20;;;;;;4931485;29;20043;-87
2023/06/13 09:52:56;;;;;;;5.45;1.80;;;25.60;69.50;;;;;;4932618;29;20066;-87
2023/06/13 09:55:21;;;;;;;6.55;2.13;;;25.60;70.20;;;;;;4930237;29;20594;-87
2023/06/13 09:57:51;;;;;;;3.65;1.95;;;25.70;70.80;;;;;;4916722;29;20134;-87
2023/06/13 10:00:17;;;;;;;10.82;2.10;;;25.70;69.00;;;;;;4915207;28;20055;-87
2023/06/13 10:02:43;;;;;;;4.68;2.10;;;25.70;71.00;;;;;;4916663;29;20402;-87
2023/06/13 10:05:10;;;;;;;9.93;2.58;;;25.80;72.40;;;;;;4915794;28;20054;-88
2023/06/13 10:07:35;;;;;;;10.07;2.25;;;25.80;72.90;;;;;;4916304;29;20047;-88
2023/06/13 10:10:01;;;;;;;11.30;2.15;;;25.80;73.40;;;;;;4915351;29;20051;-87
2023/06/13 10:12:29;;;;;;;5.10;1.83;;;25.80;73.10;;;;;;4931857;29;20141;-87
2023/06/13 10:15:00;;;;;;;6.43;1.80;;;25.80;72.50;;;;;;4916100;29;20054;-87
2023/06/13 10:17:32;;;;;;;14.15;2.08;;;25.70;71.90;;;;;;4915777;29;20383;-87
2023/06/13 10:20:04;;;;;;;9.52;2.45;;;25.70;71.80;;;;;;4931961;29;20054;-86
2023/06/13 10:22:31;;;;;;;8.05;2.00;;;25.70;71.40;;;;;;4930441;29;20051;-87
2023/06/13 10:24:57;;;;;;;4.43;1.70;;;25.80;71.70;;;;;;4914971;29;20448;-87
2023/06/13 10:27:24;;;;;;;6.32;1.80;;;25.70;71.00;;;;;;4914360;29;20406;-86
2023/06/13 10:30:06;;;;;;;8.20;2.00;;;25.80;70.70;;;;;;4929429;29;20510;-90
2023/06/13 10:32:50;;;;;;;6.65;1.80;;;25.90;71.70;;;;;;4917049;29;20054;-96
2023/06/13 10:35:31;;;;;;;11.68;2.65;;;26.00;72.80;;;;;;4920595;29;20047;-96
2023/06/13 10:38:14;;;;;;;7.63;1.80;;;26.00;73.10;;;;;;4921232;28;20047;-96
2023/06/13 10:40:58;;;;;;;12.60;2.10;;;26.10;72.70;;;;;;4923168;29;20075;-95
2023/06/13 10:43:48;;;;;;;5.53;2.20;;;26.10;72.30;;;;;;4931540;29;20107;-87
2023/06/13 10:46:14;;;;;;;4.70;1.70;;;26.10;72.50;;;;;;4943759;29;20057;-87
2023/06/13 10:48:48;;;;;;;17.92;2.30;;;26.10;72.10;;;;;;4935185;29;20098;-87
2023/06/13 10:51:20;;;;;;;7.80;1.95;;;26.10;73.40;;;;;;4932561;29;20047;-86
2023/06/13 10:53:46;;;;;;;6.63;1.95;;;26.20;73.30;;;;;;4911041;29;20551;-87
2023/06/13 10:56:12;;;;;;;8.23;2.20;;;26.20;72.50;;;;;;4910480;29;20055;-87
2023/06/13 10:58:40;;;;;;;10.40;1.98;;;26.10;71.70;;;;;;4919515;29;20062;-87
2023/06/13 11:01:24;;;;;;;6.97;2.10;;;26.20;71.70;;;;;;4919997;29;20400;-86
2023/06/13 11:03:50;;;;;;;4.78;1.85;;;26.10;71.60;;;;;;4916539;29;20068;-87
2023/06/13 11:06:16;;;;;;;4.22;1.75;;;26.20;72.70;;;;;;4944012;28;20035;-86
2023/06/13 11:08:43;;;;;;;5.78;1.77;;;26.20;72.90;;;;;;4919867;29;20420;-87
2023/06/13 11:11:09;;;;;;;12.35;1.88;;;26.20;72.00;;;;;;4918877;29;20145;-87
2023/06/13 11:13:36;;;;;;;6.57;2.05;;;26.20;72.80;;;;;;4917749;29;20050;-87
2023/06/13 11:16:18;;;;;;;6.70;1.75;;;26.20;74.60;;;;;;4920436;29;20061;-86
2023/06/13 11:18:47;;;;;;;6.93;2.30;;;26.40;74.50;;;;;;4935003;29;20046;-87
2023/06/13 11:21:13;;;;;;;6.88;1.90;;;26.40;74.30;;;;;;4935489;29;20050;-88
2023/06/13 11:23:48;;;;;;;8.82;2.05;;;26.50;74.30;;;;;;4912785;29;20052;-87
2023/06/13 11:26:19;;;;;;;7.78;2.03;;;26.50;73.40;;;;;;4934179;29;20040;-88
2023/06/13 11:28:47;;;;;;;6.57;2.00;;;26.30;73.30;;;;;;4920091;29;20436;-87
2023/06/13 11:31:13;;;;;;;10.55;1.70;;;26.20;73.50;;;;;;4918646;29;20471;-85
2023/06/13 11:33:43;;;;;;;4.30;1.60;;;26.10;72.80;;;;;;4919234;29;20081;-87
2023/06/13 11:36:10;;;;;;;5.93;1.52;;;26.10;72.60;;;;;;4919248;29;20047;-87
2023/06/13 11:38:40;;;;;;;7.32;1.30;;;26.00;71.80;;;;;;4918971;29;20435;-87
2023/06/13 11:41:06;;;;;;;4.78;1.45;;;26.10;71.80;;;;;;4905809;29;20055;-87
2023/06/13 11:43:33;;;;;;;6.07;1.70;;;26.10;71.70;;;;;;4939611;29;20059;-87
2023/06/13 11:46:00;;;;;;;5.07;1.50;;;26.20;72.40;;;;;;4919640;29;20834;-86
2023/06/13 11:48:26;;;;;;;2.67;1.58;;;26.20;71.80;;;;;;4918308;29;20490;-86
2023/06/13 11:50:52;;;;;;;5.32;1.60;;;26.30;72.60;;;;;;4907003;29;20047;-85
2023/06/13 11:53:19;;;;;;;7.35;1.50;;;26.40;71.20;;;;;;4910285;29;20390;-87
2023/06/13 11:55:46;;;;;;;5.63;1.80;;;26.50;71.10;;;;;;4918185;29;20475;-87
2023/06/13 11:58:12;;;;;;;5.30;1.50;;;26.60;69.30;;;;;;4918267;29;20083;-88
2023/06/13 12:00:49;;;;;;;9.98;1.33;;;26.60;68.90;;;;;;4926045;29;20087;-87
2023/06/13 12:03:21;;;;;;;12.50;2.00;;;26.80;68.60;;;;;;4913423;28;20103;-88
2023/06/13 12:05:48;;;;;;;6.65;1.63;;;26.80;68.50;;;;;;4918725;29;20043;-87
2023/06/13 12:08:15;;;;;;;6.25;1.40;;;27.00;68.40;;;;;;4917674;29;20515;-88
2023/06/13 12:10:41;;;;;;;7.35;1.50;;;26.90;69.40;;;;;;4918821;29;20043;-87
2023/06/13 12:13:09;;;;;;;5.25;2.00;;;26.80;69.40;;;;;;4920075;29;20046;-88
2023/06/13 12:15:35;;;;;;;7.53;1.77;;;26.70;69.00;;;;;;4917367;29;20050;-88
2023/06/13 12:18:02;;;;;;;8.70;1.80;;;26.70;69.10;;;;;;4919829;29;20040;-88
2023/06/13 12:20:30;;;;;;;5.82;1.70;;;26.70;69.80;;;;;;4919851;28;20068;-87
2023/06/13 12:22:57;;;;;;;9.98;1.80;;;26.70;69.80;;;;;;4919760;29;20117;-90
2023/06/13 12:25:27;;;;;;;8.57;1.55;;;26.70;71.00;;;;;;4919137;29;20055;-89
2023/06/13 12:27:55;;;;;;;6.35;1.58;;;26.70;70.70;;;;;;4919648;29;20480;-89
2023/06/13 12:30:21;;;;;;;26.98;2.78;;;26.60;69.10;;;;;;4919932;29;20114;-92
2023/06/13 12:32:48;;;;;;;8.30;1.45;;;26.60;69.80;;;;;;4920406;29;20066;-90
2023/06/13 12:35:19;;;;;;;9.85;1.67;;;26.60;69.20;;;;;;4920367;29;20138;-89
2023/06/13 12:37:54;;;;;;;6.47;1.50;;;26.60;69.20;;;;;;4920180;29;20181;-94
2023/06/13 12:40:30;;;;;;;7.38;1.67;;;26.60;69.00;;;;;;4913103;29;20440;-90
2023/06/13 12:42:57;;;;;;;9.43;1.55;;;26.70;68.60;;;;;;4931406;29;20051;-90
2023/06/13 12:45:25;;;;;;;5.55;1.70;;;26.60;68.70;;;;;;4918035;29;20484;-90
2023/06/13 12:47:55;;;;;;;9.02;1.50;;;26.60;68.20;;;;;;4912763;29;20059;-89